sensor_id;sensor_type;location;lat;lon;timestamp;P1;durP1;ratioP1;P2;durP2;ratioP2
23506;SDS011;11930;53.076;18.250;2024-01-25T00:01:30;10.90;;;2.53;;
23506;SDS011;11930;53.076;18.250;2024-01-25T00:03:56;6.87;;;1.97;;
23506;SDS011;11930;53.076;18.250;2024-01-25T00:06:22;8.57;;;1.70;;
23506;SDS011;11930;53.076;18.250;2024-01-25T00:08:49;6.50;;;1.90;;
23506;SDS011;11930;53.076;18.250;2024-01-25T00:11:15;8.20;;;1.60;;
23506;SDS011;11930;53.076;18.250;2024-01-25T00:13:41;11.87;;;1.70;;
23506;SDS011;11930;53.076;18.250;2024-01-25T00:16:08;6.10;;;1.57;;
23506;SDS011;11930;53.076;18.250;2024-01-25T00:18:35;8.80;;;1.77;;
23506;SDS011;11930;53.076;18.250;2024-01-25T00:21:01;10.23;;;2.03;;
23506;SDS011;11930;53.076;18.250;2024-01-25T00:23:27;8.33;;;1.97;;
23506;SDS011;11930;53.076;18.250;2024-01-25T00:25:53;8.87;;;2.07;;
23506;SDS011;11930;53.076;18.250;2024-01-25T00:28:24;8.93;;;1.87;;
23506;SDS011;11930;53.076;18.250;2024-01-25T00:30:50;9.73;;;2.13;;
23506;SDS011;11930;53.076;18.250;2024-01-25T00:33:17;9.70;;;2.10;;
23506;SDS011;11930;53.076;18.250;2024-01-25T00:35:43;13.53;;;2.90;;
23506;SDS011;11930;53.076;18.250;2024-01-25T00:38:09;9.33;;;2.20;;
23506;SDS011;11930;53.076;18.250;2024-01-25T00:40:36;9.87;;;2.23;;
23506;SDS011;11930;53.076;18.250;2024-01-25T00:43:03;7.70;;;2.17;;
23506;SDS011;11930;53.076;18.250;2024-01-25T00:45:29;9.03;;;2.27;;
23506;SDS011;11930;53.076;18.250;2024-01-25T00:47:56;11.47;;;2.70;;
23506;SDS011;11930;53.076;18.250;2024-01-25T00:50:22;10.47;;;2.50;;
23506;SDS011;11930;53.076;18.250;2024-01-25T00:52:50;11.50;;;2.53;;
23506;SDS011;11930;53.076;18.250;2024-01-25T00:55:16;9.63;;;2.77;;
23506;SDS011;11930;53.076;18.250;2024-01-25T00:57:43;11.43;;;2.77;;
23506;SDS011;11930;53.076;18.250;2024-01-25T01:00:10;10.67;;;2.57;;
23506;SDS011;11930;53.076;18.250;2024-01-25T01:02:40;10.97;;;2.87;;
23506;SDS011;11930;53.076;18.250;2024-01-25T01:05:09;7.73;;;2.37;;
23506;SDS011;11930;53.076;18.250;2024-01-25T01:07:36;9.10;;;2.33;;
23506;SDS011;11930;53.076;18.250;2024-01-25T01:10:03;10.97;;;2.90;;
23506;SDS011;11930;53.076;18.250;2024-01-25T01:12:30;11.67;;;2.40;;
23506;SDS011;11930;53.076;18.250;2024-01-25T01:14:56;9.80;;;2.17;;
23506;SDS011;11930;53.076;18.250;2024-01-25T01:17:22;9.40;;;2.10;;
23506;SDS011;11930;53.076;18.250;2024-01-25T01:19:48;11.70;;;2.40;;
23506;SDS011;11930;53.076;18.250;2024-01-25T01:22:14;8.97;;;2.40;;
23506;SDS011;11930;53.076;18.250;2024-01-25T01:24:40;8.50;;;2.10;;
23506;SDS011;11930;53.076;18.250;2024-01-25T01:27:07;9.00;;;2.10;;
23506;SDS011;11930;53.076;18.250;2024-01-25T01:29:33;10.27;;;2.10;;
23506;SDS011;11930;53.076;18.250;2024-01-25T01:31:59;7.67;;;1.93;;
23506;SDS011;11930;53.076;18.250;2024-01-25T01:34:25;9.97;;;2.30;;
23506;SDS011;11930;53.076;18.250;2024-01-25T01:36:51;11.30;;;2.30;;
23506;SDS011;11930;53.076;18.250;2024-01-25T01:39:17;12.17;;;2.07;;
23506;SDS011;11930;53.076;18.250;2024-01-25T01:41:47;9.37;;;2.30;;
23506;SDS011;11930;53.076;18.250;2024-01-25T01:44:16;9.53;;;2.17;;
23506;SDS011;11930;53.076;18.250;2024-01-25T01:46:42;12.20;;;2.40;;
23506;SDS011;11930;53.076;18.250;2024-01-25T01:49:13;7.50;;;2.07;;
23506;SDS011;11930;53.076;18.250;2024-01-25T01:51:40;14.93;;;2.77;;
23506;SDS011;11930;53.076;18.250;2024-01-25T01:54:08;10.13;;;2.23;;
23506;SDS011;11930;53.076;18.250;2024-01-25T01:56:35;12.87;;;2.93;;
23506;SDS011;11930;53.076;18.250;2024-01-25T01:59:02;11.67;;;2.20;;
23506;SDS011;11930;53.076;18.250;2024-01-25T02:01:30;10.77;;;2.57;;
23506;SDS011;11930;53.076;18.250;2024-01-25T02:03:57;9.87;;;2.67;;
23506;SDS011;11930;53.076;18.250;2024-01-25T02:06:23;12.00;;;3.00;;
23506;SDS011;11930;53.076;18.250;2024-01-25T02:08:50;9.50;;;2.30;;
23506;SDS011;11930;53.076;18.250;2024-01-25T02:11:21;11.40;;;2.53;;
23506;SDS011;11930;53.076;18.250;2024-01-25T02:13:47;12.53;;;2.30;;
23506;SDS011;11930;53.076;18.250;2024-01-25T02:16:13;14.40;;;2.43;;
23506;SDS011;11930;53.076;18.250;2024-01-25T02:18:40;11.80;;;3.13;;
23506;SDS011;11930;53.076;18.250;2024-01-25T02:21:07;10.63;;;2.10;;
23506;SDS011;11930;53.076;18.250;2024-01-25T02:23:33;12.07;;;2.73;;
23506;SDS011;11930;53.076;18.250;2024-01-25T02:26:00;11.70;;;2.17;;
23506;SDS011;11930;53.076;18.250;2024-01-25T02:28:26;10.73;;;2.30;;
23506;SDS011;11930;53.076;18.250;2024-01-25T02:30:52;11.23;;;2.10;;
23506;SDS011;11930;53.076;18.250;2024-01-25T02:33:18;11.80;;;2.20;;
23506;SDS011;11930;53.076;18.250;2024-01-25T02:35:45;14.00;;;2.60;;
23506;SDS011;11930;53.076;18.250;2024-01-25T02:38:11;9.57;;;1.97;;
23506;SDS011;11930;53.076;18.250;2024-01-25T02:40:37;12.83;;;2.23;;
23506;SDS011;11930;53.076;18.250;2024-01-25T02:43:04;10.57;;;2.10;;
23506;SDS011;11930;53.076;18.250;2024-01-25T02:45:30;8.53;;;2.00;;
23506;SDS011;11930;53.076;18.250;2024-01-25T02:47:56;6.90;;;2.00;;
23506;SDS011;11930;53.076;18.250;2024-01-25T02:50:22;13.23;;;2.63;;
23506;SDS011;11930;53.076;18.250;2024-01-25T02:52:48;14.27;;;2.63;;
23506;SDS011;11930;53.076;18.250;2024-01-25T02:55:18;11.30;;;2.10;;
23506;SDS011;11930;53.076;18.250;2024-01-25T02:57:44;8.67;;;2.20;;
23506;SDS011;11930;53.076;18.250;2024-01-25T03:00:11;13.20;;;2.57;;
23506;SDS011;11930;53.076;18.250;2024-01-25T03:02:37;11.33;;;2.37;;
23506;SDS011;11930;53.076;18.250;2024-01-25T03:05:04;14.23;;;2.20;;
23506;SDS011;11930;53.076;18.250;2024-01-25T03:07:30;10.07;;;2.77;;
23506;SDS011;11930;53.076;18.250;2024-01-25T03:09:56;11.57;;;2.50;;
23506;SDS011;11930;53.076;18.250;2024-01-25T03:12:22;15.57;;;2.20;;
23506;SDS011;11930;53.076;18.250;2024-01-25T03:14:48;6.03;;;1.97;;
23506;SDS011;11930;53.076;18.250;2024-01-25T03:17:14;10.23;;;2.30;;
23506;SDS011;11930;53.076;18.250;2024-01-25T03:19:40;14.17;;;2.43;;
23506;SDS011;11930;53.076;18.250;2024-01-25T03:22:06;8.63;;;2.10;;
23506;SDS011;11930;53.076;18.250;2024-01-25T03:24:33;12.43;;;2.23;;
23506;SDS011;11930;53.076;18.250;2024-01-25T03:27:02;9.03;;;2.10;;
23506;SDS011;11930;53.076;18.250;2024-01-25T03:29:29;13.67;;;2.80;;
23506;SDS011;11930;53.076;18.250;2024-01-25T03:31:55;7.87;;;1.97;;
23506;SDS011;11930;53.076;18.250;2024-01-25T03:34:21;7.93;;;2.10;;
23506;SDS011;11930;53.076;18.250;2024-01-25T03:36:47;10.13;;;2.60;;
23506;SDS011;11930;53.076;18.250;2024-01-25T03:39:13;9.87;;;2.37;;
23506;SDS011;11930;53.076;18.250;2024-01-25T03:41:39;10.17;;;2.10;;
23506;SDS011;11930;53.076;18.250;2024-01-25T03:44:06;14.63;;;2.20;;
23506;SDS011;11930;53.076;18.250;2024-01-25T03:46:32;13.53;;;2.57;;
23506;SDS011;11930;53.076;18.250;2024-01-25T03:48:58;9.13;;;2.20;;
23506;SDS011;11930;53.076;18.250;2024-01-25T03:51:24;12.07;;;2.40;;
23506;SDS011;11930;53.076;18.250;2024-01-25T03:53:52;8.00;;;2.00;;
23506;SDS011;11930;53.076;18.250;2024-01-25T03:56:18;11.33;;;2.17;;
23506;SDS011;11930;53.076;18.250;2024-01-25T03:58:44;8.83;;;2.73;;
23506;SDS011;11930;53.076;18.250;2024-01-25T04:01:11;10.70;;;2.70;;
23506;SDS011;11930;53.076;18.250;2024-01-25T04:03:38;9.50;;;2.30;;
23506;SDS011;11930;53.076;18.250;2024-01-25T04:06:04;9.13;;;1.80;;
23506;SDS011;11930;53.076;18.250;2024-01-25T04:08:31;12.27;;;1.80;;
23506;SDS011;11930;53.076;18.250;2024-01-25T04:10:57;8.20;;;1.67;;
23506;SDS011;11930;53.076;18.250;2024-01-25T04:13:23;7.80;;;1.73;;
23506;SDS011;11930;53.076;18.250;2024-01-25T04:15:49;9.07;;;2.10;;
23506;SDS011;11930;53.076;18.250;2024-01-25T04:18:16;8.00;;;2.13;;
23506;SDS011;11930;53.076;18.250;2024-01-25T04:20:43;7.37;;;2.30;;
23506;SDS011;11930;53.076;18.250;2024-01-25T04:23:10;6.30;;;1.67;;
23506;SDS011;11930;53.076;18.250;2024-01-25T04:25:36;8.10;;;1.77;;
23506;SDS011;11930;53.076;18.250;2024-01-25T04:28:02;7.63;;;1.70;;
23506;SDS011;11930;53.076;18.250;2024-01-25T04:30:28;4.83;;;1.40;;
23506;SDS011;11930;53.076;18.250;2024-01-25T04:32:56;4.90;;;1.40;;
23506;SDS011;11930;53.076;18.250;2024-01-25T04:35:22;8.13;;;1.43;;
23506;SDS011;11930;53.076;18.250;2024-01-25T04:37:48;5.77;;;1.47;;
23506;SDS011;11930;53.076;18.250;2024-01-25T04:40:14;6.50;;;1.70;;
23506;SDS011;11930;53.076;18.250;2024-01-25T04:42:41;11.20;;;1.83;;
23506;SDS011;11930;53.076;18.250;2024-01-25T04:45:07;7.47;;;1.63;;
23506;SDS011;11930;53.076;18.250;2024-01-25T04:47:34;8.17;;;1.50;;
23506;SDS011;11930;53.076;18.250;2024-01-25T04:50:00;4.00;;;1.60;;
23506;SDS011;11930;53.076;18.250;2024-01-25T04:52:26;6.17;;;1.60;;
23506;SDS011;11930;53.076;18.250;2024-01-25T04:54:52;9.27;;;1.60;;
23506;SDS011;11930;53.076;18.250;2024-01-25T04:57:18;6.67;;;1.40;;
23506;SDS011;11930;53.076;18.250;2024-01-25T04:59:44;9.07;;;2.00;;
23506;SDS011;11930;53.076;18.250;2024-01-25T05:02:11;3.83;;;1.70;;
23506;SDS011;11930;53.076;18.250;2024-01-25T05:04:37;4.93;;;1.40;;
23506;SDS011;11930;53.076;18.250;2024-01-25T05:07:03;4.60;;;1.77;;
23506;SDS011;11930;53.076;18.250;2024-01-25T05:09:29;3.70;;;1.33;;
23506;SDS011;11930;53.076;18.250;2024-01-25T05:11:55;5.27;;;1.40;;
23506;SDS011;11930;53.076;18.250;2024-01-25T05:14:24;5.23;;;1.07;;
23506;SDS011;11930;53.076;18.250;2024-01-25T05:16:51;4.63;;;1.30;;
23506;SDS011;11930;53.076;18.250;2024-01-25T05:19:17;3.63;;;1.10;;
23506;SDS011;11930;53.076;18.250;2024-01-25T05:21:43;7.00;;;1.50;;
23506;SDS011;11930;53.076;18.250;2024-01-25T05:24:09;3.57;;;1.20;;
23506;SDS011;11930;53.076;18.250;2024-01-25T05:26:36;5.73;;;1.30;;
23506;SDS011;11930;53.076;18.250;2024-01-25T05:29:02;5.10;;;1.30;;
23506;SDS011;11930;53.076;18.250;2024-01-25T05:31:28;3.60;;;1.40;;
23506;SDS011;11930;53.076;18.250;2024-01-25T05:33:54;6.13;;;1.50;;
23506;SDS011;11930;53.076;18.250;2024-01-25T05:36:20;5.57;;;1.87;;
23506;SDS011;11930;53.076;18.250;2024-01-25T05:38:47;4.90;;;1.90;;
23506;SDS011;11930;53.076;18.250;2024-01-25T05:41:13;6.00;;;1.30;;
23506;SDS011;11930;53.076;18.250;2024-01-25T05:43:39;5.30;;;1.13;;
23506;SDS011;11930;53.076;18.250;2024-01-25T05:46:06;6.93;;;1.20;;
23506;SDS011;11930;53.076;18.250;2024-01-25T05:48:33;6.23;;;1.40;;
23506;SDS011;11930;53.076;18.250;2024-01-25T05:51:00;3.80;;;1.10;;
23506;SDS011;11930;53.076;18.250;2024-01-25T05:53:26;3.80;;;1.17;;
23506;SDS011;11930;53.076;18.250;2024-01-25T05:55:52;5.37;;;1.47;;
23506;SDS011;11930;53.076;18.250;2024-01-25T05:58:18;3.53;;;1.00;;
23506;SDS011;11930;53.076;18.250;2024-01-25T06:00:44;2.13;;;1.10;;
23506;SDS011;11930;53.076;18.250;2024-01-25T06:03:10;2.90;;;0.93;;
23506;SDS011;11930;53.076;18.250;2024-01-25T06:05:37;3.70;;;1.20;;
23506;SDS011;11930;53.076;18.250;2024-01-25T06:08:03;4.37;;;1.33;;
23506;SDS011;11930;53.076;18.250;2024-01-25T06:10:30;3.83;;;1.10;;
23506;SDS011;11930;53.076;18.250;2024-01-25T06:12:56;3.50;;;0.90;;
23506;SDS011;11930;53.076;18.250;2024-01-25T06:15:22;4.33;;;1.10;;
23506;SDS011;11930;53.076;18.250;2024-01-25T06:17:48;3.37;;;0.90;;
23506;SDS011;11930;53.076;18.250;2024-01-25T06:20:14;2.27;;;1.00;;
23506;SDS011;11930;53.076;18.250;2024-01-25T06:22:40;3.07;;;0.80;;
23506;SDS011;11930;53.076;18.250;2024-01-25T06:25:07;5.27;;;1.27;;
23506;SDS011;11930;53.076;18.250;2024-01-25T06:27:34;3.83;;;1.27;;
23506;SDS011;11930;53.076;18.250;2024-01-25T06:30:00;2.27;;;0.97;;
23506;SDS011;11930;53.076;18.250;2024-01-25T06:32:26;2.80;;;0.90;;
23506;SDS011;11930;53.076;18.250;2024-01-25T06:34:53;4.23;;;1.00;;
23506;SDS011;11930;53.076;18.250;2024-01-25T06:37:19;3.27;;;1.00;;
23506;SDS011;11930;53.076;18.250;2024-01-25T06:39:45;3.23;;;1.23;;
23506;SDS011;11930;53.076;18.250;2024-01-25T06:42:11;2.70;;;0.97;;
23506;SDS011;11930;53.076;18.250;2024-01-25T06:44:38;2.77;;;0.80;;
23506;SDS011;11930;53.076;18.250;2024-01-25T06:47:04;2.80;;;1.07;;
23506;SDS011;11930;53.076;18.250;2024-01-25T06:49:30;2.03;;;0.80;;
23506;SDS011;11930;53.076;18.250;2024-01-25T06:51:56;3.53;;;1.00;;
23506;SDS011;11930;53.076;18.250;2024-01-25T06:54:22;2.43;;;0.97;;
23506;SDS011;11930;53.076;18.250;2024-01-25T06:56:48;2.77;;;0.97;;
23506;SDS011;11930;53.076;18.250;2024-01-25T06:59:17;2.80;;;0.87;;
23506;SDS011;11930;53.076;18.250;2024-01-25T07:01:43;3.20;;;0.90;;
23506;SDS011;11930;53.076;18.250;2024-01-25T07:04:09;2.07;;;0.70;;
23506;SDS011;11930;53.076;18.250;2024-01-25T07:06:35;4.43;;;1.00;;
23506;SDS011;11930;53.076;18.250;2024-01-25T07:09:02;5.10;;;1.20;;
23506;SDS011;11930;53.076;18.250;2024-01-25T07:11:28;2.50;;;0.70;;
23506;SDS011;11930;53.076;18.250;2024-01-25T07:13:55;2.23;;;0.90;;
23506;SDS011;11930;53.076;18.250;2024-01-25T07:16:21;1.80;;;1.00;;
23506;SDS011;11930;53.076;18.250;2024-01-25T07:18:49;3.30;;;1.43;;
23506;SDS011;11930;53.076;18.250;2024-01-25T07:21:15;4.10;;;1.50;;
23506;SDS011;11930;53.076;18.250;2024-01-25T07:23:42;4.40;;;2.00;;
23506;SDS011;11930;53.076;18.250;2024-01-25T07:26:08;3.40;;;1.10;;
23506;SDS011;11930;53.076;18.250;2024-01-25T07:28:34;3.23;;;1.10;;
23506;SDS011;11930;53.076;18.250;2024-01-25T07:31:00;4.63;;;2.57;;
23506;SDS011;11930;53.076;18.250;2024-01-25T07:33:26;7.40;;;2.27;;
23506;SDS011;11930;53.076;18.250;2024-01-25T07:35:52;4.17;;;1.90;;
23506;SDS011;11930;53.076;18.250;2024-01-25T07:38:19;7.33;;;2.50;;
23506;SDS011;11930;53.076;18.250;2024-01-25T07:40:45;5.30;;;2.40;;
23506;SDS011;11930;53.076;18.250;2024-01-25T07:43:11;2.83;;;1.93;;
23506;SDS011;11930;53.076;18.250;2024-01-25T07:45:37;4.40;;;1.40;;
23506;SDS011;11930;53.076;18.250;2024-01-25T07:48:05;4.43;;;1.20;;
23506;SDS011;11930;53.076;18.250;2024-01-25T07:50:32;4.93;;;1.10;;
23506;SDS011;11930;53.076;18.250;2024-01-25T07:52:58;3.50;;;1.30;;
23506;SDS011;11930;53.076;18.250;2024-01-25T07:55:26;6.37;;;1.57;;
23506;SDS011;11930;53.076;18.250;2024-01-25T07:57:53;4.43;;;1.63;;
23506;SDS011;11930;53.076;18.250;2024-01-25T08:00:19;4.70;;;1.20;;
23506;SDS011;11930;53.076;18.250;2024-01-25T08:02:45;4.40;;;1.17;;
23506;SDS011;11930;53.076;18.250;2024-01-25T08:05:11;3.03;;;1.20;;
23506;SDS011;11930;53.076;18.250;2024-01-25T08:07:38;2.40;;;1.10;;
23506;SDS011;11930;53.076;18.250;2024-01-25T08:10:04;3.67;;;1.17;;
23506;SDS011;11930;53.076;18.250;2024-01-25T08:12:31;3.80;;;1.00;;
23506;SDS011;11930;53.076;18.250;2024-01-25T08:14:58;3.03;;;1.10;;
23506;SDS011;11930;53.076;18.250;2024-01-25T08:17:24;2.87;;;1.00;;
23506;SDS011;11930;53.076;18.250;2024-01-25T08:19:50;2.57;;;1.10;;
23506;SDS011;11930;53.076;18.250;2024-01-25T08:22:17;4.07;;;1.03;;
23506;SDS011;11930;53.076;18.250;2024-01-25T08:24:43;2.90;;;1.00;;
23506;SDS011;11930;53.076;18.250;2024-01-25T08:27:09;3.20;;;1.07;;
23506;SDS011;11930;53.076;18.250;2024-01-25T08:29:35;3.33;;;1.10;;
23506;SDS011;11930;53.076;18.250;2024-01-25T08:32:03;4.50;;;1.40;;
23506;SDS011;11930;53.076;18.250;2024-01-25T08:34:29;3.67;;;1.00;;
23506;SDS011;11930;53.076;18.250;2024-01-25T08:36:55;4.33;;;1.27;;
23506;SDS011;11930;53.076;18.250;2024-01-25T08:39:21;4.40;;;1.33;;
23506;SDS011;11930;53.076;18.250;2024-01-25T08:41:48;3.03;;;1.13;;
23506;SDS011;11930;53.076;18.250;2024-01-25T08:44:15;4.37;;;1.20;;
23506;SDS011;11930;53.076;18.250;2024-01-25T08:46:42;6.00;;;1.27;;
23506;SDS011;11930;53.076;18.250;2024-01-25T08:49:08;5.17;;;1.90;;
23506;SDS011;11930;53.076;18.250;2024-01-25T08:51:38;5.50;;;1.50;;
23506;SDS011;11930;53.076;18.250;2024-01-25T08:54:04;10.33;;;3.60;;
23506;SDS011;11930;53.076;18.250;2024-01-25T08:56:30;10.93;;;3.07;;
23506;SDS011;11930;53.076;18.250;2024-01-25T08:58:56;5.70;;;2.80;;
23506;SDS011;11930;53.076;18.250;2024-01-25T09:01:23;5.23;;;1.20;;
23506;SDS011;11930;53.076;18.250;2024-01-25T09:03:49;8.80;;;3.13;;
23506;SDS011;11930;53.076;18.250;2024-01-25T09:06:15;9.23;;;3.30;;
23506;SDS011;11930;53.076;18.250;2024-01-25T09:08:51;27.00;;;9.89;;
23506;SDS011;11930;53.076;18.250;2024-01-25T09:11:18;26.60;;;9.63;;
23506;SDS011;11930;53.076;18.250;2024-01-25T09:13:44;6.50;;;2.40;;
23506;SDS011;11930;53.076;18.250;2024-01-25T09:16:13;7.60;;;2.07;;
23506;SDS011;11930;53.076;18.250;2024-01-25T09:18:41;7.73;;;1.93;;
23506;SDS011;11930;53.076;18.250;2024-01-25T09:21:07;4.70;;;1.40;;
23506;SDS011;11930;53.076;18.250;2024-01-25T09:23:33;5.60;;;1.53;;
23506;SDS011;11930;53.076;18.250;2024-01-25T09:26:00;9.17;;;2.00;;
23506;SDS011;11930;53.076;18.250;2024-01-25T09:28:26;5.77;;;1.47;;
23506;SDS011;11930;53.076;18.250;2024-01-25T09:30:52;7.13;;;1.70;;
23506;SDS011;11930;53.076;18.250;2024-01-25T09:33:18;5.17;;;1.30;;
23506;SDS011;11930;53.076;18.250;2024-01-25T09:35:45;7.50;;;2.13;;
23506;SDS011;11930;53.076;18.250;2024-01-25T09:38:13;12.73;;;2.30;;
23506;SDS011;11930;53.076;18.250;2024-01-25T09:40:39;8.50;;;2.73;;
23506;SDS011;11930;53.076;18.250;2024-01-25T09:43:06;11.33;;;4.30;;
23506;SDS011;11930;53.076;18.250;2024-01-25T09:45:32;14.40;;;5.40;;
23506;SDS011;11930;53.076;18.250;2024-01-25T09:48:00;12.83;;;4.93;;
23506;SDS011;11930;53.076;18.250;2024-01-25T09:50:30;10.57;;;4.03;;
23506;SDS011;11930;53.076;18.250;2024-01-25T09:52:59;6.57;;;2.20;;
23506;SDS011;11930;53.076;18.250;2024-01-25T09:55:26;5.77;;;1.97;;
23506;SDS011;11930;53.076;18.250;2024-01-25T09:57:55;9.47;;;2.80;;
23506;SDS011;11930;53.076;18.250;2024-01-25T10:00:24;7.47;;;2.07;;
23506;SDS011;11930;53.076;18.250;2024-01-25T10:02:50;8.63;;;2.10;;
23506;SDS011;11930;53.076;18.250;2024-01-25T10:05:17;9.10;;;2.07;;
23506;SDS011;11930;53.076;18.250;2024-01-25T10:07:44;6.73;;;1.40;;
23506;SDS011;11930;53.076;18.250;2024-01-25T10:10:12;5.23;;;1.70;;
23506;SDS011;11930;53.076;18.250;2024-01-25T10:12:41;5.40;;;1.80;;
23506;SDS011;11930;53.076;18.250;2024-01-25T10:15:09;6.20;;;1.90;;
23506;SDS011;11930;53.076;18.250;2024-01-25T10:17:35;5.70;;;1.50;;
23506;SDS011;11930;53.076;18.250;2024-01-25T10:20:04;5.93;;;1.40;;
23506;SDS011;11930;53.076;18.250;2024-01-25T10:22:36;7.87;;;1.50;;
23506;SDS011;11930;53.076;18.250;2024-01-25T10:25:03;8.07;;;1.40;;
23506;SDS011;11930;53.076;18.250;2024-01-25T10:27:30;9.10;;;1.33;;
23506;SDS011;11930;53.076;18.250;2024-01-25T10:29:56;6.57;;;1.60;;
23506;SDS011;11930;53.076;18.250;2024-01-25T10:32:22;6.13;;;1.53;;
23506;SDS011;11930;53.076;18.250;2024-01-25T10:34:49;7.70;;;1.63;;
23506;SDS011;11930;53.076;18.250;2024-01-25T10:37:17;7.50;;;1.57;;
23506;SDS011;11930;53.076;18.250;2024-01-25T10:39:45;6.53;;;1.90;;
23506;SDS011;11930;53.076;18.250;2024-01-25T10:42:13;6.17;;;1.70;;
23506;SDS011;11930;53.076;18.250;2024-01-25T10:44:39;6.40;;;1.57;;
23506;SDS011;11930;53.076;18.250;2024-01-25T10:47:06;4.97;;;1.40;;
23506;SDS011;11930;53.076;18.250;2024-01-25T10:49:33;7.20;;;1.50;;
23506;SDS011;11930;53.076;18.250;2024-01-25T10:52:00;7.10;;;1.67;;
23506;SDS011;11930;53.076;18.250;2024-01-25T10:54:27;5.70;;;1.50;;
23506;SDS011;11930;53.076;18.250;2024-01-25T10:56:54;5.10;;;1.50;;
23506;SDS011;11930;53.076;18.250;2024-01-25T10:59:20;6.10;;;1.60;;
23506;SDS011;11930;53.076;18.250;2024-01-25T11:01:47;6.40;;;1.70;;
23506;SDS011;11930;53.076;18.250;2024-01-25T11:04:17;6.87;;;1.90;;
23506;SDS011;11930;53.076;18.250;2024-01-25T11:06:44;4.80;;;1.33;;
23506;SDS011;11930;53.076;18.250;2024-01-25T11:09:16;7.50;;;2.00;;
23506;SDS011;11930;53.076;18.250;2024-01-25T11:11:46;5.33;;;1.73;;
23506;SDS011;11930;53.076;18.250;2024-01-25T11:14:16;5.87;;;1.57;;
23506;SDS011;11930;53.076;18.250;2024-01-25T11:16:44;4.90;;;1.47;;
23506;SDS011;11930;53.076;18.250;2024-01-25T11:19:19;6.87;;;1.77;;
23506;SDS011;11930;53.076;18.250;2024-01-25T11:21:50;4.47;;;1.40;;
23506;SDS011;11930;53.076;18.250;2024-01-25T11:24:21;7.40;;;2.10;;
23506;SDS011;11930;53.076;18.250;2024-01-25T11:26:49;6.13;;;1.43;;
23506;SDS011;11930;53.076;18.250;2024-01-25T11:29:16;4.27;;;1.40;;
23506;SDS011;11930;53.076;18.250;2024-01-25T11:31:43;4.87;;;1.20;;
23506;SDS011;11930;53.076;18.250;2024-01-25T11:34:14;3.93;;;1.57;;
23506;SDS011;11930;53.076;18.250;2024-01-25T11:36:42;5.13;;;1.30;;
23506;SDS011;11930;53.076;18.250;2024-01-25T11:39:09;5.17;;;1.43;;
23506;SDS011;11930;53.076;18.250;2024-01-25T11:41:36;6.57;;;1.40;;
23506;SDS011;11930;53.076;18.250;2024-01-25T11:44:03;5.13;;;1.70;;
23506;SDS011;11930;53.076;18.250;2024-01-25T11:46:30;5.53;;;1.60;;
23506;SDS011;11930;53.076;18.250;2024-01-25T11:49:00;5.60;;;1.47;;
23506;SDS011;11930;53.076;18.250;2024-01-25T11:51:26;6.23;;;1.40;;
23506;SDS011;11930;53.076;18.250;2024-01-25T11:53:52;3.53;;;1.00;;
23506;SDS011;11930;53.076;18.250;2024-01-25T11:56:23;3.97;;;1.40;;
23506;SDS011;11930;53.076;18.250;2024-01-25T11:58:57;5.77;;;1.33;;
23506;SDS011;11930;53.076;18.250;2024-01-25T12:01:26;5.67;;;1.27;;
23506;SDS011;11930;53.076;18.250;2024-01-25T12:03:54;4.27;;;1.20;;
23506;SDS011;11930;53.076;18.250;2024-01-25T12:06:20;4.83;;;1.40;;
23506;SDS011;11930;53.076;18.250;2024-01-25T12:08:47;4.60;;;1.37;;
23506;SDS011;11930;53.076;18.250;2024-01-25T12:11:14;6.33;;;2.07;;
23506;SDS011;11930;53.076;18.250;2024-01-25T12:13:41;4.43;;;1.57;;
23506;SDS011;11930;53.076;18.250;2024-01-25T12:16:08;7.10;;;1.50;;
23506;SDS011;11930;53.076;18.250;2024-01-25T12:18:36;5.67;;;1.60;;
23506;SDS011;11930;53.076;18.250;2024-01-25T12:21:04;4.80;;;1.20;;
23506;SDS011;11930;53.076;18.250;2024-01-25T12:23:38;4.83;;;1.33;;
23506;SDS011;11930;53.076;18.250;2024-01-25T12:26:06;4.90;;;1.57;;
23506;SDS011;11930;53.076;18.250;2024-01-25T12:28:33;6.27;;;2.20;;
23506;SDS011;11930;53.076;18.250;2024-01-25T12:31:01;5.30;;;1.30;;
23506;SDS011;11930;53.076;18.250;2024-01-25T12:33:31;6.63;;;2.20;;
23506;SDS011;11930;53.076;18.250;2024-01-25T12:35:59;4.83;;;1.67;;
23506;SDS011;11930;53.076;18.250;2024-01-25T12:38:26;6.80;;;2.80;;
23506;SDS011;11930;53.076;18.250;2024-01-25T12:40:53;6.40;;;1.90;;
23506;SDS011;11930;53.076;18.250;2024-01-25T12:43:19;4.97;;;1.50;;
23506;SDS011;11930;53.076;18.250;2024-01-25T12:45:49;4.23;;;1.57;;
23506;SDS011;11930;53.076;18.250;2024-01-25T12:48:15;5.33;;;1.77;;
23506;SDS011;11930;53.076;18.250;2024-01-25T12:50:42;7.50;;;1.70;;
23506;SDS011;11930;53.076;18.250;2024-01-25T12:53:11;4.57;;;1.30;;
23506;SDS011;11930;53.076;18.250;2024-01-25T12:55:40;6.20;;;1.70;;
23506;SDS011;11930;53.076;18.250;2024-01-25T12:58:06;5.00;;;2.07;;
23506;SDS011;11930;53.076;18.250;2024-01-25T13:00:32;6.60;;;1.90;;
23506;SDS011;11930;53.076;18.250;2024-01-25T13:02:59;8.23;;;2.30;;
23506;SDS011;11930;53.076;18.250;2024-01-25T13:05:29;6.50;;;2.33;;
23506;SDS011;11930;53.076;18.250;2024-01-25T13:08:02;5.63;;;1.93;;
23506;SDS011;11930;53.076;18.250;2024-01-25T13:10:29;6.13;;;2.00;;
23506;SDS011;11930;53.076;18.250;2024-01-25T13:12:56;5.10;;;1.90;;
23506;SDS011;11930;53.076;18.250;2024-01-25T13:15:23;5.87;;;1.63;;
23506;SDS011;11930;53.076;18.250;2024-01-25T13:17:52;6.00;;;2.03;;
23506;SDS011;11930;53.076;18.250;2024-01-25T13:20:18;9.50;;;2.63;;
23506;SDS011;11930;53.076;18.250;2024-01-25T13:22:44;6.07;;;2.10;;
23506;SDS011;11930;53.076;18.250;2024-01-25T13:25:11;6.47;;;1.90;;
23506;SDS011;11930;53.076;18.250;2024-01-25T13:27:37;4.87;;;1.80;;
23506;SDS011;11930;53.076;18.250;2024-01-25T13:30:04;5.63;;;2.03;;
23506;SDS011;11930;53.076;18.250;2024-01-25T13:32:31;10.00;;;2.93;;
23506;SDS011;11930;53.076;18.250;2024-01-25T13:34:57;4.77;;;2.00;;
23506;SDS011;11930;53.076;18.250;2024-01-25T13:37:23;5.23;;;1.90;;
23506;SDS011;11930;53.076;18.250;2024-01-25T13:39:49;20.77;;;7.00;;
23506;SDS011;11930;53.076;18.250;2024-01-25T13:42:15;6.47;;;2.50;;
23506;SDS011;11930;53.076;18.250;2024-01-25T13:44:41;1.70;;;0.83;;
23506;SDS011;11930;53.076;18.250;2024-01-25T13:47:08;2.90;;;0.80;;
23506;SDS011;11930;53.076;18.250;2024-01-25T13:49:34;2.77;;;0.80;;
23506;SDS011;11930;53.076;18.250;2024-01-25T13:52:01;1.90;;;0.87;;
23506;SDS011;11930;53.076;18.250;2024-01-25T13:54:30;2.10;;;0.90;;
23506;SDS011;11930;53.076;18.250;2024-01-25T13:56:57;1.43;;;0.70;;
23506;SDS011;11930;53.076;18.250;2024-01-25T13:59:23;5.17;;;1.20;;
23506;SDS011;11930;53.076;18.250;2024-01-25T14:01:51;2.70;;;1.00;;
23506;SDS011;11930;53.076;18.250;2024-01-25T14:04:17;3.87;;;1.23;;
23506;SDS011;11930;53.076;18.250;2024-01-25T14:06:44;5.90;;;1.73;;
23506;SDS011;11930;53.076;18.250;2024-01-25T14:09:10;2.97;;;1.13;;
23506;SDS011;11930;53.076;18.250;2024-01-25T14:11:36;3.30;;;0.90;;
23506;SDS011;11930;53.076;18.250;2024-01-25T14:14:03;2.23;;;1.00;;
23506;SDS011;11930;53.076;18.250;2024-01-25T14:16:29;2.57;;;0.90;;
23506;SDS011;11930;53.076;18.250;2024-01-25T14:18:55;3.23;;;1.03;;
23506;SDS011;11930;53.076;18.250;2024-01-25T14:21:24;1.83;;;0.90;;
23506;SDS011;11930;53.076;18.250;2024-01-25T14:23:50;2.20;;;1.00;;
23506;SDS011;11930;53.076;18.250;2024-01-25T14:26:16;3.43;;;1.33;;
23506;SDS011;11930;53.076;18.250;2024-01-25T14:28:42;3.47;;;1.30;;